Time;durP1;ratioP1;P1;durP2;ratioP2;P2;SDS_P1;SDS_P2;PMS_P1;PMS_P2;Temp;Humidity;BMP_temperature;BMP_pressure;BME280_temperature;BME280_humidity;BME280_pressure;Samples;Min_cycle;Max_cycle;Signal;HPM_P1;HPM_P2
2020/12/07 00:00:57;;;;;;;41.85;27.73;;;;;;;5.89;100.00;100064.16;6245843;22;20027;-86
2020/12/07 00:03:24;;;;;;;42.72;27.52;;;;;;;5.87;100.00;100071.31;6246664;22;20177;-85
2020/12/07 00:05:52;;;;;;;46.15;29.80;;;;;;;5.87;100.00;100066.00;6246955;22;20019;-86
2020/12/07 00:08:20;;;;;;;44.55;27.88;;;;;;;5.87;100.00;100063.34;6273060;22;20026;-85
2020/12/07 00:10:47;;;;;;;45.35;28.25;;;;;;;5.85;100.00;100067.88;6269550;22;20061;-86
2020/12/07 00:13:13;;;;;;;45.22;27.88;;;;;;;5.83;100.00;100065.28;6241079;22;20011;-87
2020/12/07 00:15:40;;;;;;;45.90;29.00;;;;;;;5.81;100.00;100055.66;6246671;22;20883;-86
2020/12/07 00:18:07;;;;;;;40.53;28.10;;;;;;;5.82;100.00;100054.72;6273146;22;20012;-85
2020/12/07 00:20:35;;;;;;;45.30;28.30;;;;;;;5.78;100.00;100060.16;6246955;22;20066;-86
2020/12/07 00:23:03;;;;;;;43.35;27.23;;;;;;;5.82;100.00;100062.69;6273147;22;20026;-87
2020/12/07 00:25:31;;;;;;;41.90;29.33;;;;;;;5.78;100.00;100057.50;6242421;22;20069;-87
2020/12/07 00:27:59;;;;;;;41.92;27.05;;;;;;;5.77;100.00;100055.78;6267552;22;20062;-85
2020/12/07 00:30:26;;;;;;;43.45;28.50;;;;;;;5.76;100.00;100053.19;6246968;22;20028;-85
2020/12/07 00:32:53;;;;;;;45.63;28.60;;;;;;;5.76;100.00;100053.19;6246307;22;20015;-86
2020/12/07 00:35:20;;;;;;;42.30;27.55;;;;;;;5.75;100.00;100052.31;6273190;22;20020;-87
2020/12/07 00:37:47;;;;;;;45.03;27.98;;;;;;;5.77;100.00;100058.44;6273351;22;20077;-84
2020/12/07 00:40:15;;;;;;;45.55;27.67;;;;;;;5.76;100.00;100053.19;6265670;22;20559;-86
2020/12/07 00:42:43;;;;;;;44.30;27.88;;;;;;;5.79;100.00;100053.91;6243851;22;20050;-88
2020/12/07 00:45:11;;;;;;;44.95;28.58;;;;;;;5.74;100.00;100055.91;6273617;22;20450;-86
2020/12/07 00:47:38;;;;;;;48.65;29.42;;;;;;;5.75;100.00;100047.00;6246375;22;20023;-86
2020/12/07 00:50:05;;;;;;;44.05;27.67;;;;;;;5.74;100.00;100045.28;6273121;22;20019;-87
2020/12/07 00:52:32;;;;;;;43.45;27.63;;;;;;;5.78;100.00;100046.88;6241169;22;20071;-87
2020/12/07 00:54:59;;;;;;;41.10;27.40;;;;;;;5.80;100.00;100049.47;6215363;22;20058;-87
2020/12/07 00:57:26;;;;;;;43.13;28.55;;;;;;;5.74;100.00;100047.94;6246327;22;20026;-91
2020/12/07 00:59:54;;;;;;;45.72;28.58;;;;;;;5.78;100.00;100057.50;6273717;22;20026;-87
2020/12/07 01:02:22;;;;;;;46.97;29.27;;;;;;;5.78;100.00;100046.88;6246915;22;20023;-88
2020/12/07 01:04:49;;;;;;;45.05;28.02;;;;;;;5.77;100.00;100045.16;6274499;22;20015;-86
2020/12/07 01:07:17;;;;;;;44.50;28.42;;;;;;;5.76;100.00;100040.75;6241696;22;20365;-86
2020/12/07 01:09:47;;;;;;;29.38;20.38;;;;;;;5.75;100.00;100036.38;6267253;22;20014;-85
2020/12/07 01:12:14;;;;;;;44.17;27.55;;;;;;;5.75;100.00;100044.34;6273291;22;20094;-86
2020/12/07 01:14:46;;;;;;;46.35;28.52;;;;;;;5.76;100.00;100035.44;6246638;22;20106;-88
2020/12/07 01:17:15;;;;;;;44.60;26.67;;;;;;;5.75;100.00;100047.00;6246074;22;20028;-87
2020/12/07 01:19:45;;;;;;;49.00;28.90;;;;;;;5.75;100.00;100052.31;6246669;22;20454;-86
2020/12/07 01:22:19;;;;;;;44.53;26.75;;;;;;;5.75;100.00;100062.94;6238344;22;20024;-87
2020/12/07 01:24:47;;;;;;;42.25;27.50;;;;;;;5.75;100.00;100062.09;6241113;22;20020;-86
2020/12/07 01:27:14;;;;;;;42.88;28.13;;;;;;;5.72;100.00;100057.75;6245916;22;20023;-86
2020/12/07 01:29:42;;;;;;;45.38;28.25;;;;;;;5.71;100.00;100064.00;6246676;22;20377;-87
2020/12/07 01:32:09;;;;;;;44.85;27.65;;;;;;;5.73;100.00;100061.28;6246011;22;20453;-85
2020/12/07 01:34:37;;;;;;;43.17;27.50;;;;;;;5.71;100.00;100058.69;6242160;22;20015;-87
2020/12/07 01:37:05;;;;;;;45.75;27.85;;;;;;;5.69;100.00;100055.22;6240161;22;20020;-85
2020/12/07 01:39:39;;;;;;;39.83;27.27;;;;;;;5.68;100.00;100056.16;6270899;22;20019;-89
2020/12/07 01:42:06;;;;;;;49.55;26.98;;;;;;;5.69;100.00;100043.75;6245984;22;20117;-87
2020/12/07 01:44:34;;;;;;;45.70;28.27;;;;;;;5.65;100.00;100035.03;6273485;22;20046;-88
2020/12/07 01:47:21;;;;;;;43.95;28.50;;;;;;;5.66;100.00;100033.25;6241059;23;20462;-88
2020/12/07 01:49:55;;;;;;;43.17;28.00;;;;;;;5.67;100.00;100035.84;6235994;23;20012;-89
2020/12/07 01:52:25;;;;;;;46.33;29.05;;;;;;;5.65;100.00;100036.84;6236287;23;20012;-85
2020/12/07 01:54:55;;;;;;;42.22;26.15;;;;;;;5.64;100.00;100028.03;6239945;23;20016;-86
2020/12/07 01:57:28;;;;;;;43.58;27.83;;;;;;;5.64;100.00;100030.69;6241122;23;20073;-85
2020/12/07 02:00:01;;;;;;;40.70;28.00;;;;;;;5.62;100.00;100032.53;6240319;23;20035;-90
2020/12/07 02:02:29;;;;;;;46.38;28.20;;;;;;;5.60;100.00;100029.06;6237156;23;20020;-85
2020/12/07 02:04:57;;;;;;;45.83;27.77;;;;;;;5.60;100.00;100039.69;6235019;23;20027;-87
2020/12/07 02:07:24;;;;;;;44.53;29.35;;;;;;;5.59;100.00;100037.97;6240538;23;20027;-85
2020/12/07 02:09:55;;;;;;;;;;;;;;;5.55;100.00;100036.34;6241070;23;20020;-87
2020/12/07 02:12:22;;;;;;;45.42;28.15;;;;;;;5.56;100.00;100029.28;6242395;22;19951;-84
2020/12/07 02:14:50;;;;;;;47.08;28.50;;;;;;;5.55;100.00;100017.78;6240879;23;20024;-86
2020/12/07 02:17:19;;;;;;;43.47;28.42;;;;;;;5.54;100.00;100031.97;6235567;23;20024;-85
2020/12/07 02:19:50;;;;;;;47.03;28.15;;;;;;;5.52;100.00;100016.13;6235466;23;20027;-86
2020/12/07 02:22:18;;;;;;;48.45;28.15;;;;;;;5.51;100.00;100005.56;6241580;22;20078;-87
2020/12/07 02:25:09;;;;;;;45.92;27.60;;;;;;;5.50;100.00;100007.34;6240090;23;20017;-86
2020/12/07 02:27:37;;;;;;;47.08;28.17;;;;;;;5.49;100.00;100002.13;6241406;23;20016;-88
2020/12/07 02:30:05;;;;;;;48.95;29.40;;;;;;;5.49;100.00;100007.44;6265273;22;20020;-86
2020/12/07 02:32:33;;;;;;;42.90;28.25;;;;;;;5.51;100.00;100003.75;6232987;23;20028;-88
2020/12/07 02:35:15;;;;;;;46.97;29.10;;;;;;;5.57;100.00;100000.00;6240349;23;20042;-88
2020/12/07 02:37:49;;;;;;;50.20;28.98;;;;;;;5.58;100.00;100001.72;6240046;23;20366;-87
2020/12/07 02:40:19;;;;;;;46.88;27.48;;;;;;;5.54;100.00;100002.78;6240188;23;20024;-89
2020/12/07 02:42:47;;;;;;;44.60;28.95;;;;;;;5.55;100.00;100004.50;6243019;22;20023;-88
2020/12/07 02:45:19;;;;;;;43.10;27.35;;;;;;;5.50;100.00;100001.19;6235923;22;20455;-85
2020/12/07 02:47:59;;;;;;;47.90;28.20;;;;;;;5.53;100.00;100011.69;6239588;22;20019;-84
2020/12/07 02:50:31;;;;;;;42.83;27.65;;;;;;;5.51;100.00;100000.25;6270803;22;20031;-87
2020/12/07 02:53:00;;;;;;;38.47;26.38;;;;;;;5.54;100.00;99997.47;6245396;22;20784;-87
2020/12/07 02:55:29;;;;;;;43.03;28.45;;;;;;;5.56;100.00;99992.09;6245157;22;20402;-85
2020/12/07 02:57:56;;;;;;;46.60;27.38;;;;;;;5.57;100.00;99994.69;6245865;22;20355;-87
2020/12/07 03:00:28;;;;;;;46.03;26.42;;;;;;;5.59;100.00;99994.59;6238099;22;20038;-85
2020/12/07 03:02:56;;;;;;;41.63;27.58;;;;;;;5.59;100.00;100003.47;6244056;22;20024;-86
2020/12/07 03:05:28;;;;;;;45.28;28.15;;;;;;;5.59;100.00;100000.81;6245899;22;20020;-87
2020/12/07 03:08:02;;;;;;;50.35;29.30;;;;;;;5.58;100.00;99993.75;6244070;22;20022;-85
2020/12/07 03:10:31;;;;;;;43.97;27.67;;;;;;;5.58;100.00;99995.53;6244656;22;20138;-86
2020/12/07 03:12:59;;;;;;;44.75;28.60;;;;;;;5.56;100.00;99992.97;6269184;22;20019;-85
2020/12/07 03:15:29;;;;;;;38.45;23.55;;;;;;;5.54;100.00;99990.34;6242186;22;20044;-85
2020/12/07 03:17:57;;;;;;;41.72;27.25;;;;;;;5.54;100.00;99998.31;6246837;22;20447;-85
2020/12/07 03:20:34;;;;;;;44.55;27.52;;;;;;;5.52;100.00;100009.97;6247611;22;20023;-89
2020/12/07 03:23:03;;;;;;;46.30;28.02;;;;;;;5.52;100.00;99996.69;6246974;22;20091;-85
2020/12/07 03:25:30;;;;;;;44.20;28.15;;;;;;;5.47;100.00;99988.03;6246399;22;20135;-85
2020/12/07 03:27:58;;;;;;;43.53;26.30;;;;;;;5.49;100.00;99986.19;6241421;22;20042;-86
2020/12/07 03:30:26;;;;;;;42.92;28.08;;;;;;;5.51;100.00;99984.31;6242230;22;20027;-85
2020/12/07 03:32:55;;;;;;;47.72;28.50;;;;;;;5.48;100.00;99984.44;6247303;22;20023;-85
2020/12/07 03:35:23;;;;;;;40.80;27.42;;;;;;;5.47;100.00;99993.34;6273762;22;20026;-86
2020/12/07 03:37:51;;;;;;;50.08;30.02;;;;;;;5.46;100.00;99981.88;6246079;22;20027;-84
2020/12/07 03:40:19;;;;;;;49.13;29.13;;;;;;;5.48;100.00;99989.75;6244231;22;20030;-86
2020/12/07 03:42:49;;;;;;;46.80;29.00;;;;;;;5.48;100.00;99980.03;6240960;22;20020;-86
2020/12/07 03:45:17;;;;;;;42.10;28.42;;;;;;;5.48;100.00;99987.09;6246408;22;20589;-88
2020/12/07 03:47:46;;;;;;;41.63;27.92;;;;;;;5.49;100.00;99984.38;6247725;22;20035;-87
2020/12/07 03:50:17;;;;;;;53.47;28.23;;;;;;;5.46;100.00;99979.19;6273684;22;20133;-87
2020/12/07 03:52:47;;;;;;;40.92;26.58;;;;;;;5.44;100.00;99969.56;6246112;22;20119;-86
2020/12/07 03:55:20;;;;;;;49.63;29.60;;;;;;;5.42;100.00;99974.09;6241904;22;20094;-85
2020/12/07 03:57:48;;;;;;;42.20;27.58;;;;;;;5.43;100.00;99967.84;6241395;22;20112;-86
2020/12/07 04:00:15;;;;;;;43.60;27.90;;;;;;;5.41;100.00;99965.28;6245824;22;20029;-85
2020/12/07 04:02:50;;;;;;;42.20;27.83;;;;;;;5.40;100.00;99962.66;6247855;22;20395;-87
2020/12/07 04:05:28;;;;;;;46.20;28.60;;;;;;;5.40;100.00;99967.97;6273959;22;20016;-85
2020/12/07 04:07:57;;;;;;;45.97;28.88;;;;;;;5.39;100.00;99975.09;6246657;22;20086;-85
2020/12/07 04:10:25;;;;;;;42.05;29.17;;;;;;;5.38;100.00;99972.50;6238744;22;20077;-85
2020/12/07 04:12:52;;;;;;;46.45;28.33;;;;;;;5.39;100.00;99975.09;6270385;22;20096;-86
2020/12/07 04:15:19;;;;;;;43.35;27.48;;;;;;;5.37;100.00;99987.53;6246908;22;20479;-85
2020/12/07 04:17:46;;;;;;;38.65;25.92;;;;;;;5.36;100.00;99988.47;6273247;22;20015;-86
2020/12/07 04:20:14;;;;;;;49.33;27.70;;;;;;;5.35;100.00;99989.41;6246735;22;20402;-84
2020/12/07 04:22:41;;;;;;;44.20;29.30;;;;;;;5.33;100.00;99971.81;6269114;22;20019;-84
2020/12/07 04:25:08;;;;;;;46.50;28.27;;;;;;;5.34;100.00;99981.50;6268288;22;20070;-86
2020/12/07 04:27:36;;;;;;;45.75;28.33;;;;;;;5.32;100.00;99978.06;6246564;22;20023;-85
2020/12/07 04:30:03;;;;;;;39.55;28.35;;;;;;;5.32;100.00;99978.06;6273970;22;20020;-86
2020/12/07 04:32:30;;;;;;;45.67;28.88;;;;;;;5.30;100.00;99981.66;6246674;22;20030;-84
2020/12/07 04:34:57;;;;;;;41.00;27.48;;;;;;;5.31;100.00;99969.25;6273963;22;20015;-87
2020/12/07 04:37:25;;;;;;;43.30;27.63;;;;;;;5.32;100.00;99972.75;6240602;22;20439;-86
2020/12/07 04:39:52;;;;;;;44.30;28.67;;;;;;;5.29;100.00;99979.91;6242419;22;20020;-86
2020/12/07 04:42:20;;;;;;;43.53;28.42;;;;;;;5.29;100.00;99973.75;6248895;22;20031;-87
2020/12/07 04:44:48;;;;;;;44.13;27.88;;;;;;;5.29;100.00;99968.44;6250122;22;20081;-86
2020/12/07 04:47:18;;;;;;;45.10;28.65;;;;;;;5.32;100.00;99967.44;6244735;23;20027;-89
2020/12/07 04:49:46;;;;;;;43.92;28.45;;;;;;;5.29;100.00;99963.13;6243190;22;20027;-87
2020/12/07 04:52:14;;;;;;;41.00;27.52;;;;;;;5.28;100.00;99972.88;6237578;23;20023;-89
2020/12/07 04:54:42;;;;;;;40.90;25.60;;;;;;;5.30;100.00;99979.00;6238235;23;20488;-89
2020/12/07 04:57:11;;;;;;;40.83;26.55;;;;;;;5.30;100.00;99971.03;6241997;23;20086;-87
2020/12/07 04:59:40;;;;;;;43.60;27.83;;;;;;;5.28;100.00;99970.22;6242678;22;20023;-86
2020/12/07 05:02:09;;;;;;;44.95;28.60;;;;;;;5.29;100.00;99973.75;6241733;23;20462;-90
2020/12/07 05:04:36;;;;;;;42.38;28.13;;;;;;;5.29;100.00;99971.94;6238585;23;20350;-86
2020/12/07 05:07:06;;;;;;;45.92;27.73;;;;;;;5.29;100.00;99987.00;6235240;23;20020;-85
2020/12/07 05:09:34;;;;;;;46.75;28.80;;;;;;;5.30;100.00;99986.97;6241870;23;20020;-87
2020/12/07 05:12:06;;;;;;;47.22;28.25;;;;;;;5.33;100.00;99985.09;6240983;23;20028;-90
2020/12/07 05:14:34;;;;;;;;;;;;;;;5.32;100.00;99983.38;6242841;23;20458;-85
2020/12/07 05:17:01;;;;;;;46.85;28.08;;;;;;;5.31;100.00;99993.13;6242721;22;19915;-85
2020/12/07 05:19:29;;;;;;;47.92;29.13;;;;;;;5.33;100.00;99985.94;6238012;23;20046;-84
2020/12/07 05:21:56;;;;;;;49.00;29.48;;;;;;;5.31;100.00;99979.84;6237134;23;20026;-86
2020/12/07 05:24:25;;;;;;;48.28;30.70;;;;;;;5.27;100.00;99981.78;6241224;23;20020;-87
2020/12/07 05:26:54;;;;;;;45.28;28.70;;;;;;;5.30;100.00;99976.34;6242236;23;20328;-87
2020/12/07 05:29:31;;;;;;;49.20;28.33;;;;;;;5.28;100.00;99964.06;6242989;23;20008;-87
2020/12/07 05:31:59;;;;;;;46.08;29.05;;;;;;;5.23;100.00;99969.56;6241076;23;20295;-86
2020/12/07 05:34:26;;;;;;;50.80;29.77;;;;;;;5.21;100.00;99970.56;6233641;23;20087;-86
2020/12/07 05:36:55;;;;;;;50.65;29.90;;;;;;;5.22;100.00;99973.13;6239029;22;20024;-86
2020/12/07 05:39:25;;;;;;;54.78;28.45;;;;;;;5.21;100.00;99966.09;6241347;23;20070;-86
2020/12/07 05:41:54;;;;;;;46.30;28.23;;;;;;;5.20;100.00;99966.19;6243432;22;20043;-84
2020/12/07 05:44:22;;;;;;;47.35;29.10;;;;;;;5.21;100.00;99957.28;6238253;22;20020;-83
2020/12/07 05:46:53;;;;;;;47.05;29.73;;;;;;;5.20;100.00;99948.47;6252984;22;20026;-82
2020/12/07 05:49:23;;;;;;;52.20;30.15;;;;;;;5.17;100.00;99930.00;6259325;22;20043;-85
2020/12/07 05:52:03;;;;;;;47.20;28.17;;;;;;;5.18;100.00;99942.34;6268481;22;20395;-82
2020/12/07 05:54:31;;;;;;;52.85;30.77;;;;;;;5.18;100.00;99945.00;6239321;22;20107;-84
2020/12/07 05:57:10;;;;;;;50.83;30.20;;;;;;;5.17;100.00;99942.41;6239106;22;20061;-85
2020/12/07 05:59:41;;;;;;;47.28;29.10;;;;;;;5.15;100.00;99954.88;6237015;22;20410;-83
2020/12/07 06:02:10;;;;;;;49.50;29.50;;;;;;;5.14;100.00;99946.06;6260577;22;20018;-85
2020/12/07 06:04:37;;;;;;;49.05;29.60;;;;;;;5.13;100.00;99946.97;6236046;22;20517;-88
2020/12/07 06:07:08;;;;;;;50.78;31.27;;;;;;;5.10;100.00;99948.91;6238860;22;20354;-86
2020/12/07 06:09:37;;;;;;;;;;;;;;;5.14;100.00;99947.84;6240014;22;20015;-88
2020/12/07 06:12:08;;;;;;;44.17;27.77;;;;;;;5.11;100.00;99943.50;6240307;22;19923;-90
2020/12/07 06:14:37;;;;;;;46.33;29.17;;;;;;;5.08;100.00;99927.72;6241704;22;20076;-90
2020/12/07 06:17:07;;;;;;;52.08;30.52;;;;;;;5.06;100.00;99932.25;6243146;22;20038;-87
2020/12/07 06:19:34;;;;;;;50.15;28.67;;;;;;;5.06;100.00;99930.44;6245651;22;20058;-87
2020/12/07 06:22:03;;;;;;;48.03;29.35;;;;;;;5.05;100.00;99941.16;6250059;22;20024;-91
2020/12/07 06:27:31;;;;;;;43.10;27.85;;;;;;;5.06;100.00;99929.59;6274312;22;20020;-88
2020/12/07 06:30:13;;;;;;;51.97;29.88;;;;;;;5.05;100.00;99930.53;6214325;22;20022;-87
2020/12/07 06:32:44;;;;;;;49.45;30.80;;;;;;;5.09;100.00;99936.56;6240590;22;20502;-82
2020/12/07 06:35:12;;;;;;;49.13;30.25;;;;;;;5.04;100.00;99936.75;6270673;22;20058;-82
2020/12/07 06:37:44;;;;;;;48.45;28.58;;;;;;;5.06;100.00;99927.78;6270106;22;20024;-84
2020/12/07 06:40:13;;;;;;;50.22;30.65;;;;;;;5.04;100.00;99926.13;6271889;22;20087;-82
2020/12/07 06:42:41;;;;;;;47.53;28.88;;;;;;;5.07;100.00;99931.31;6245517;22;20649;-81
2020/12/07 06:45:19;;;;;;;48.35;28.52;;;;;;;5.11;100.00;99922.28;6256454;22;20022;-84
2020/12/07 06:47:48;;;;;;;53.60;27.80;;;;;;;5.15;100.00;99915.91;6266869;22;20023;-84
2020/12/07 06:50:19;;;;;;;50.58;30.48;;;;;;;5.15;100.00;99913.28;6265409;22;20046;-84
2020/12/07 06:52:47;;;;;;;48.58;28.83;;;;;;;5.07;100.00;99910.94;6265793;22;20015;-84
2020/12/07 06:55:16;;;;;;;45.17;27.65;;;;;;;5.09;100.00;99913.56;6265252;22;20385;-84
2020/12/07 06:57:46;;;;;;;44.55;27.05;;;;;;;5.09;100.00;99912.69;6263429;22;20509;-82
2020/12/07 07:00:15;;;;;;;46.55;26.60;;;;;;;5.09;100.00;99924.16;6265959;22;20118;-83
2020/12/07 07:02:44;;;;;;;44.47;26.63;;;;;;;5.11;100.00;99911.69;6273980;22;20016;-83
2020/12/07 07:05:12;;;;;;;44.30;26.77;;;;;;;5.11;100.00;99926.75;6243715;22;20391;-82
2020/12/07 07:07:39;;;;;;;45.33;27.80;;;;;;;5.05;100.00;99928.72;6265290;22;20022;-82
2020/12/07 07:10:08;;;;;;;43.50;27.17;;;;;;;5.05;100.00;99928.72;6265879;22;20012;-82
2020/12/07 07:12:37;;;;;;;40.30;25.35;;;;;;;5.07;100.00;99942.78;6258950;22;20199;-84
2020/12/07 07:15:06;;;;;;;46.60;27.10;;;;;;;5.09;100.00;99939.22;6261351;22;20023;-85
2020/12/07 07:17:37;;;;;;;43.30;27.67;;;;;;;5.05;100.00;99935.84;6264944;22;20023;-82
2020/12/07 07:20:06;;;;;;;40.20;25.63;;;;;;;5.03;100.00;99929.72;6264621;22;20085;-83
2020/12/07 07:22:35;;;;;;;47.67;26.52;;;;;;;5.02;100.00;99925.34;6264315;22;20061;-83
2020/12/07 07:25:08;;;;;;;46.20;27.98;;;;;;;5.04;100.00;99928.78;6260836;22;20023;-84
2020/12/07 07:28:03;;;;;;;47.05;27.40;;;;;;;5.07;100.00;99926.00;6259586;22;20019;-85
2020/12/07 07:30:30;;;;;;;39.60;24.67;;;;;;;5.03;100.00;99941.19;6266407;22;20098;-82
2020/12/07 07:32:58;;;;;;;43.50;25.67;;;;;;;5.04;100.00;99939.41;6266717;22;20020;-83
2020/12/07 07:35:26;;;;;;;45.08;25.90;;;;;;;5.02;100.00;99959.84;6239527;22;20061;-83
2020/12/07 07:37:54;;;;;;;41.65;25.70;;;;;;;5.02;100.00;99943.91;6264230;22;20469;-83
2020/12/07 07:40:22;;;;;;;43.30;26.92;;;;;;;5.07;100.00;99949.88;6258562;22;20024;-83
2020/12/07 07:42:52;;;;;;;42.03;26.73;;;;;;;5.02;100.00;99938.59;6260300;22;20070;-83
2020/12/07 07:45:22;;;;;;;46.13;27.02;;;;;;;5.03;100.00;99940.31;6237366;22;20034;-83
2020/12/07 07:47:55;;;;;;;45.45;27.33;;;;;;;5.04;100.00;99942.91;6264539;22;20023;-85
2020/12/07 08:16:19;;;;;;;38.50;24.38;;;;;;;5.04;100.00;99932.28;6264755;22;20030;-84
2020/12/07 08:18:48;;;;;;;42.17;26.02;;;;;;;5.08;100.00;99927.72;6266117;22;20024;-83
2020/12/07 08:21:28;;;;;;;41.20;25.38;;;;;;;5.07;100.00;99941.94;6259405;22;20085;-85
2020/12/07 08:24:05;;;;;;;41.97;25.15;;;;;;;5.06;100.00;99933.09;6258479;22;20020;-85
2020/12/07 08:26:33;;;;;;;39.13;23.85;;;;;;;5.10;100.00;99938.28;6263691;22;20034;-84
2020/12/07 08:29:05;;;;;;;39.83;25.10;;;;;;;5.10;100.00;99944.44;6264238;22;20023;-85
2020/12/07 08:31:36;;;;;;;38.65;25.15;;;;;;;5.16;100.00;99944.22;6265701;22;20016;-85
2020/12/07 08:34:07;;;;;;;41.72;25.52;;;;;;;5.15;100.00;99942.47;6238195;22;20031;-84
2020/12/07 08:36:35;;;;;;;38.85;24.27;;;;;;;5.16;100.00;99938.91;6258152;22;20419;-83
2020/12/07 08:39:03;;;;;;;39.70;24.13;;;;;;;5.19;100.00;99944.09;6262192;22;20020;-85
2020/12/07 08:41:32;;;;;;;40.20;25.17;;;;;;;5.22;100.00;99938.63;6264970;22;20481;-85
2020/12/07 08:44:01;;;;;;;38.72;23.23;;;;;;;5.25;100.00;99949.13;6236937;22;20024;-84
2020/12/07 08:46:31;;;;;;;35.20;23.50;;;;;;;5.27;100.00;99951.72;6232194;23;20027;-85
2020/12/07 08:49:00;;;;;;;39.30;23.70;;;;;;;5.33;100.00;99959.41;6230422;23;20027;-84
2020/12/07 08:51:31;;;;;;;34.97;23.85;;;;;;;5.36;100.00;99969.03;6227124;22;20023;-86
2020/12/07 08:53:59;;;;;;;37.40;22.90;;;;;;;5.38;100.00;99968.06;6232939;23;20099;-86
2020/12/07 08:56:26;;;;;;;36.17;23.45;;;;;;;5.38;100.00;99952.13;6233906;23;20510;-85
2020/12/07 08:58:53;;;;;;;36.45;23.30;;;;;;;5.41;100.00;99961.72;6232072;23;20111;-84
2020/12/07 09:01:20;;;;;;;38.33;23.45;;;;;;;5.41;100.00;99969.69;6233086;23;20016;-85
2020/12/07 09:03:47;;;;;;;41.95;24.73;;;;;;;5.42;100.00;99976.75;6229825;23;20020;-85
2020/12/07 09:06:16;;;;;;;40.60;24.02;;;;;;;5.43;100.00;99989.94;6226398;23;20036;-84
2020/12/07 09:08:44;;;;;;;36.75;24.55;;;;;;;5.42;100.00;99996.19;6232865;22;20086;-85
2020/12/07 09:11:12;;;;;;;36.92;23.02;;;;;;;5.52;100.00;99989.56;6232946;23;20370;-83
2020/12/07 09:13:40;;;;;;;44.83;23.83;;;;;;;5.56;100.00;99998.28;6232793;23;20019;-85
2020/12/07 09:16:08;;;;;;;35.33;23.48;;;;;;;5.52;100.00;100004.66;6231234;23;20363;-83
2020/12/07 09:18:35;;;;;;;43.95;24.27;;;;;;;5.51;100.00;100006.41;6226797;23;20020;-83
2020/12/07 09:21:03;;;;;;;36.17;23.65;;;;;;;5.54;100.00;100013.41;6229334;23;20027;-85
2020/12/07 09:23:32;;;;;;;39.42;24.75;;;;;;;5.54;100.00;100008.09;6231882;23;20112;-85
2020/12/07 09:26:00;;;;;;;41.15;24.10;;;;;;;5.56;100.00;100014.22;6232149;23;20012;-86
2020/12/07 09:28:27;;;;;;;37.85;24.40;;;;;;;5.57;100.00;100000.00;6232763;23;20087;-85
2020/12/07 09:30:54;;;;;;;36.40;24.65;;;;;;;5.54;100.00;100000.13;6231007;23;20306;-86
2020/12/07 09:33:21;;;;;;;40.08;25.20;;;;;;;5.61;100.00;100001.59;6227749;23;20020;-85
2020/12/07 09:35:48;;;;;;;37.53;24.00;;;;;;;5.64;100.00;99996.16;6234218;23;20513;-85
2020/12/07 09:38:15;;;;;;;39.45;25.33;;;;;;;5.62;100.00;99981.19;6228298;23;20078;-84
2020/12/07 09:40:43;;;;;;;45.25;25.33;;;;;;;5.65;100.00;99981.94;6233880;23;20408;-83
2020/12/07 09:43:10;;;;;;;37.97;24.20;;;;;;;5.69;100.00;99983.53;6232296;23;20016;-86
2020/12/07 09:45:37;;;;;;;45.08;24.58;;;;;;;5.71;100.00;99992.31;6226449;22;20047;-85
2020/12/07 09:48:04;;;;;;;38.63;23.42;;;;;;;5.74;100.00;99992.16;6200930;23;20047;-85
2020/12/07 09:50:34;;;;;;;41.70;23.88;;;;;;;5.73;100.00;99985.13;6208034;23;20048;-83
2020/12/07 09:53:02;;;;;;;37.10;23.77;;;;;;;5.76;100.00;99984.13;6233698;22;20474;-87
2020/12/07 09:55:29;;;;;;;34.63;23.88;;;;;;;5.72;100.00;99972.75;6234593;23;20436;-85
2020/12/07 09:57:58;;;;;;;40.00;23.73;;;;;;;5.74;100.00;99980.69;6236036;23;20377;-84
2020/12/07 10:00:25;;;;;;;35.75;23.38;;;;;;;5.76;100.00;99981.47;6228110;23;20108;-85
2020/12/07 10:02:53;;;;;;;34.80;24.05;;;;;;;5.75;100.00;99988.56;6228188;23;20020;-85
2020/12/07 10:05:20;;;;;;;35.47;22.88;;;;;;;5.81;100.00;99986.59;6207171;23;20070;-85
2020/12/07 10:07:47;;;;;;;35.88;23.90;;;;;;;5.76;100.00;99986.78;6232055;23;20020;-86
2020/12/07 10:10:14;;;;;;;37.95;23.58;;;;;;;5.75;100.00;99996.53;6233836;23;20016;-84
2020/12/07 10:12:41;;;;;;;37.80;23.50;;;;;;;5.76;100.00;99982.31;6204336;23;20024;-85
2020/12/07 10:15:09;;;;;;;38.05;23.35;;;;;;;5.75;100.00;99985.91;6224937;23;20354;-85
2020/12/07 10:17:36;;;;;;;40.45;23.80;;;;;;;5.79;100.00;99968.91;6232225;23;20027;-86
2020/12/07 10:20:04;;;;;;;38.40;23.50;;;;;;;5.81;100.00;99973.31;6205407;23;20557;-84
2020/12/07 10:22:31;;;;;;;36.78;23.02;;;;;;;5.83;100.00;99984.72;6232118;23;20098;-86
2020/12/07 10:24:58;;;;;;;34.35;22.63;;;;;;;5.87;100.00;99981.00;6206514;23;20350;-85
2020/12/07 10:27:25;;;;;;;36.10;22.35;;;;;;;5.89;100.00;99973.84;6202210;23;20338;-85
2020/12/07 10:29:52;;;;;;;36.55;22.98;;;;;;;5.85;100.00;99977.56;6227269;23;20020;-83
2020/12/07 10:32:20;;;;;;;37.22;22.27;;;;;;;5.87;100.00;99981.00;6233831;23;20020;-83
2020/12/07 10:34:47;;;;;;;32.50;21.75;;;;;;;5.91;100.00;99983.44;6208135;23;20398;-84
2020/12/07 10:37:16;;;;;;;33.25;22.38;;;;;;;5.94;100.00;99990.47;6232084;23;20043;-85
2020/12/07 10:39:43;;;;;;;31.13;21.08;;;;;;;5.94;100.00;99977.16;6233388;23;20039;-85
2020/12/07 10:42:10;;;;;;;39.85;21.95;;;;;;;5.96;100.00;99984.16;6201676;23;20020;-84
2020/12/07 10:44:37;;;;;;;35.53;20.10;;;;;;;5.99;100.00;99988.47;6227736;23;20086;-85
2020/12/07 10:47:04;;;;;;;29.38;20.48;;;;;;;6.00;100.00;99976.91;6256576;22;20019;-85
2020/12/07 10:49:32;;;;;;;33.47;19.98;;;;;;;6.01;100.00;99989.25;6264325;22;20023;-85
2020/12/07 10:52:00;;;;;;;30.55;19.92;;;;;;;6.02;100.00;99977.69;6262352;22;20026;-89
2020/12/07 10:54:27;;;;;;;28.52;19.63;;;;;;;5.99;100.00;99980.50;6262144;22;20020;-85
2020/12/07 10:56:54;;;;;;;32.35;20.45;;;;;;;6.00;100.00;99980.41;6229050;22;20409;-85
2020/12/07 10:59:21;;;;;;;33.38;20.83;;;;;;;6.01;100.00;99992.78;6261901;22;20012;-85
2020/12/07 11:01:52;;;;;;;34.50;20.98;;;;;;;6.02;100.00;99977.69;6263254;22;20019;-85
2020/12/07 11:04:20;;;;;;;33.03;20.33;;;;;;;6.01;100.00;99975.97;6264062;22;20522;-85
2020/12/07 11:06:50;;;;;;;33.95;20.75;;;;;;;6.02;100.00;99972.38;6237099;22;20024;-84
2020/12/07 11:09:23;;;;;;;30.48;19.15;;;;;;;6.03;100.00;99967.94;6258988;22;20445;-86
2020/12/07 11:11:55;;;;;;;36.72;20.48;;;;;;;5.99;100.00;99967.22;6258788;22;20091;-82
2020/12/07 11:14:22;;;;;;;30.30;20.23;;;;;;;5.99;100.00;99969.88;6263694;22;20239;-83
2020/12/07 11:16:50;;;;;;;31.77;20.50;;;;;;;5.99;100.00;99962.75;6264148;22;20025;-88
2020/12/07 11:19:17;;;;;;;32.17;20.27;;;;;;;5.98;100.00;99955.69;6264138;22;20019;-86
2020/12/07 11:21:44;;;;;;;32.80;20.35;;;;;;;5.98;100.00;99939.75;6263658;22;20062;-85
2020/12/07 11:24:12;;;;;;;36.47;20.25;;;;;;;5.99;100.00;99948.63;6229496;22;20106;-85
2020/12/07 11:26:39;;;;;;;31.55;20.60;;;;;;;5.99;100.00;99959.25;6259121;22;20038;-83
2020/12/07 11:29:06;;;;;;;33.80;20.35;;;;;;;6.00;100.00;99961.81;6236400;22;20058;-86
2020/12/07 11:31:33;;;;;;;32.88;20.13;;;;;;;5.99;100.00;99972.53;6236358;22;20085;-85
2020/12/07 11:34:01;;;;;;;31.85;19.95;;;;;;;5.99;100.00;99959.25;6239873;22;20019;-87
2020/12/07 11:36:28;;;;;;;29.85;19.80;;;;;;;5.96;100.00;99954.06;6237668;22;20027;-86
2020/12/07 11:39:06;;;;;;;33.05;20.70;;;;;;;5.99;100.00;99948.63;6257668;22;20043;-84
2020/12/07 11:44:17;;;;;;;33.47;20.25;;;;;;;5.99;100.00;99953.94;6261390;22;20481;-85
2020/12/07 11:46:49;;;;;;;34.35;19.45;;;;;;;5.94;100.00;99945.28;6265286;22;20020;-84
2020/12/07 11:49:16;;;;;;;28.17;19.48;;;;;;;5.96;100.00;99957.56;6266833;22;20047;-85
2020/12/07 11:51:43;;;;;;;31.70;20.23;;;;;;;5.91;100.00;99964.84;6260517;22;20712;-85
2020/12/07 11:54:10;;;;;;;29.70;20.17;;;;;;;5.91;100.00;99961.31;6259101;22;20023;-83
2020/12/07 11:56:39;;;;;;;33.92;20.25;;;;;;;5.88;100.00;99953.50;6236684;22;20073;-85